sensor_id;sensor_type;location;lat;lon;timestamp;temperature;humidity
20492;DHT22;10404;51.468;6.762;2024-03-23T00:55:12;8.90;75.20
20492;DHT22;10404;51.468;6.762;2024-03-23T00:57:37;8.80;75.10
20492;DHT22;10404;51.468;6.762;2024-03-23T01:00:04;8.80;75.00
20492;DHT22;10404;51.468;6.762;2024-03-23T01:02:32;8.80;74.90
20492;DHT22;10404;51.468;6.762;2024-03-23T01:04:57;8.80;74.90
20492;DHT22;10404;51.468;6.762;2024-03-23T01:07:23;8.80;74.90
20492;DHT22;10404;51.468;6.762;2024-03-23T01:09:48;8.80;74.90
20492;DHT22;10404;51.468;6.762;2024-03-23T01:12:14;8.70;74.90
20492;DHT22;10404;51.468;6.762;2024-03-23T01:14:43;8.60;74.90
20492;DHT22;10404;51.468;6.762;2024-03-23T01:17:08;8.60;74.80
20492;DHT22;10404;51.468;6.762;2024-03-23T01:19:34;8.60;74.70
20492;DHT22;10404;51.468;6.762;2024-03-23T01:21:59;8.60;74.60
20492;DHT22;10404;51.468;6.762;2024-03-23T01:24:25;8.60;74.70
20492;DHT22;10404;51.468;6.762;2024-03-23T01:26:50;8.60;74.60
20492;DHT22;10404;51.468;6.762;2024-03-23T01:29:16;8.60;74.70
20492;DHT22;10404;51.468;6.762;2024-03-23T01:31:41;8.50;74.60
20492;DHT22;10404;51.468;6.762;2024-03-23T01:34:07;8.50;74.60
20492;DHT22;10404;51.468;6.762;2024-03-23T01:36:33;8.50;74.60
20492;DHT22;10404;51.468;6.762;2024-03-23T01:38:59;8.50;74.70
20492;DHT22;10404;51.468;6.762;2024-03-23T01:41:25;8.40;74.70
20492;DHT22;10404;51.468;6.762;2024-03-23T01:43:50;8.40;74.70
20492;DHT22;10404;51.468;6.762;2024-03-23T01:46:16;8.40;74.70
20492;DHT22;10404;51.468;6.762;2024-03-23T01:48:42;8.40;74.70
20492;DHT22;10404;51.468;6.762;2024-03-23T01:51:08;8.40;74.60
20492;DHT22;10404;51.468;6.762;2024-03-23T01:53:33;8.40;74.70
20492;DHT22;10404;51.468;6.762;2024-03-23T01:55:59;8.30;74.70
20492;DHT22;10404;51.468;6.762;2024-03-23T01:58:25;8.30;74.70
20492;DHT22;10404;51.468;6.762;2024-03-23T02:00:50;8.30;74.70
20492;DHT22;10404;51.468;6.762;2024-03-23T02:03:26;8.30;74.70
20492;DHT22;10404;51.468;6.762;2024-03-23T02:05:53;8.30;74.70
20492;DHT22;10404;51.468;6.762;2024-03-23T02:08:21;8.30;74.80
20492;DHT22;10404;51.468;6.762;2024-03-23T02:10:48;8.30;74.90
20492;DHT22;10404;51.468;6.762;2024-03-23T02:13:15;8.20;74.90
20492;DHT22;10404;51.468;6.762;2024-03-23T02:15:41;8.20;75.00
20492;DHT22;10404;51.468;6.762;2024-03-23T02:18:08;8.20;74.90
20492;DHT22;10404;51.468;6.762;2024-03-23T02:20:37;8.20;74.90
20492;DHT22;10404;51.468;6.762;2024-03-23T02:23:12;8.20;74.80
20492;DHT22;10404;51.468;6.762;2024-03-23T02:25:38;8.20;74.90
20492;DHT22;10404;51.468;6.762;2024-03-23T02:28:03;8.10;74.90
20492;DHT22;10404;51.468;6.762;2024-03-23T02:30:29;8.10;74.90
20492;DHT22;10404;51.468;6.762;2024-03-23T02:32:55;8.10;74.90
20492;DHT22;10404;51.468;6.762;2024-03-23T02:35:21;8.10;75.00
20492;DHT22;10404;51.468;6.762;2024-03-23T02:37:47;8.10;74.90
20492;DHT22;10404;51.468;6.762;2024-03-23T02:40:16;8.10;75.00
20492;DHT22;10404;51.468;6.762;2024-03-23T02:42:42;8.10;75.00
20492;DHT22;10404;51.468;6.762;2024-03-23T02:45:08;8.00;75.00
20492;DHT22;10404;51.468;6.762;2024-03-23T02:47:33;8.00;75.00
20492;DHT22;10404;51.468;6.762;2024-03-23T02:49:59;8.00;75.00
20492;DHT22;10404;51.468;6.762;2024-03-23T02:52:24;8.00;75.00
20492;DHT22;10404;51.468;6.762;2024-03-23T02:54:50;8.00;75.00
20492;DHT22;10404;51.468;6.762;2024-03-23T02:57:16;8.00;75.10
20492;DHT22;10404;51.468;6.762;2024-03-23T02:59:41;8.00;75.20
20492;DHT22;10404;51.468;6.762;2024-03-23T03:02:07;8.00;75.30
20492;DHT22;10404;51.468;6.762;2024-03-23T03:04:33;8.00;75.30
20492;DHT22;10404;51.468;6.762;2024-03-23T03:06:58;8.00;75.30
20492;DHT22;10404;51.468;6.762;2024-03-23T03:09:24;8.00;75.20
20492;DHT22;10404;51.468;6.762;2024-03-23T03:11:49;7.90;75.20
20492;DHT22;10404;51.468;6.762;2024-03-23T03:14:15;8.00;75.20
20492;DHT22;10404;51.468;6.762;2024-03-23T03:16:41;7.80;75.40
20492;DHT22;10404;51.468;6.762;2024-03-23T03:19:06;7.80;75.40
20492;DHT22;10404;51.468;6.762;2024-03-23T03:21:32;7.80;75.30
20492;DHT22;10404;51.468;6.762;2024-03-23T03:23:58;7.80;75.30
20492;DHT22;10404;51.468;6.762;2024-03-23T03:26:23;7.80;75.30
20492;DHT22;10404;51.468;6.762;2024-03-23T03:28:50;7.80;75.30
20492;DHT22;10404;51.468;6.762;2024-03-23T03:31:16;7.80;75.30
20492;DHT22;10404;51.468;6.762;2024-03-23T03:33:42;7.80;75.40
20492;DHT22;10404;51.468;6.762;2024-03-23T03:36:08;7.80;75.30
20492;DHT22;10404;51.468;6.762;2024-03-23T03:38:34;7.80;75.40
20492;DHT22;10404;51.468;6.762;2024-03-23T03:41:03;7.80;75.40
20492;DHT22;10404;51.468;6.762;2024-03-23T03:43:29;7.80;75.40
20492;DHT22;10404;51.468;6.762;2024-03-23T03:45:56;7.70;75.30
20492;DHT22;10404;51.468;6.762;2024-03-23T03:48:22;7.70;75.30
20492;DHT22;10404;51.468;6.762;2024-03-23T03:50:48;7.70;75.30
20492;DHT22;10404;51.468;6.762;2024-03-23T03:53:13;7.70;75.30
20492;DHT22;10404;51.468;6.762;2024-03-23T03:55:39;7.60;75.30
20492;DHT22;10404;51.468;6.762;2024-03-23T03:58:05;7.60;75.40
20492;DHT22;10404;51.468;6.762;2024-03-23T04:00:30;7.60;75.30
20492;DHT22;10404;51.468;6.762;2024-03-23T04:02:56;7.60;75.30
20492;DHT22;10404;51.468;6.762;2024-03-23T04:05:22;7.60;75.30
20492;DHT22;10404;51.468;6.762;2024-03-23T04:07:48;7.50;75.40
20492;DHT22;10404;51.468;6.762;2024-03-23T04:10:14;7.50;75.40
20492;DHT22;10404;51.468;6.762;2024-03-23T04:12:41;7.50;75.40
20492;DHT22;10404;51.468;6.762;2024-03-23T04:15:07;7.50;75.50
20492;DHT22;10404;51.468;6.762;2024-03-23T04:17:32;7.50;75.40
20492;DHT22;10404;51.468;6.762;2024-03-23T04:20:00;7.50;75.40
20492;DHT22;10404;51.468;6.762;2024-03-23T04:22:26;7.50;75.40
20492;DHT22;10404;51.468;6.762;2024-03-23T04:24:56;7.50;75.30
20492;DHT22;10404;51.468;6.762;2024-03-23T04:27:24;7.50;75.50
20492;DHT22;10404;51.468;6.762;2024-03-23T04:29:50;7.50;75.50
20492;DHT22;10404;51.468;6.762;2024-03-23T04:32:16;7.50;75.40
20492;DHT22;10404;51.468;6.762;2024-03-23T04:34:43;7.40;75.40
20492;DHT22;10404;51.468;6.762;2024-03-23T04:37:09;7.40;75.40
20492;DHT22;10404;51.468;6.762;2024-03-23T04:39:36;7.40;75.40
20492;DHT22;10404;51.468;6.762;2024-03-23T04:42:02;7.40;75.50
20492;DHT22;10404;51.468;6.762;2024-03-23T04:44:28;7.40;75.50
20492;DHT22;10404;51.468;6.762;2024-03-23T04:46:53;7.40;75.50
20492;DHT22;10404;51.468;6.762;2024-03-23T04:49:19;7.40;75.50
20492;DHT22;10404;51.468;6.762;2024-03-23T04:51:45;7.30;75.40
20492;DHT22;10404;51.468;6.762;2024-03-23T04:54:15;7.30;75.50
20492;DHT22;10404;51.468;6.762;2024-03-23T04:56:40;7.30;75.50
20492;DHT22;10404;51.468;6.762;2024-03-23T04:59:06;7.30;75.50
20492;DHT22;10404;51.468;6.762;2024-03-23T05:01:32;7.30;75.50
20492;DHT22;10404;51.468;6.762;2024-03-23T05:03:58;7.20;75.50
20492;DHT22;10404;51.468;6.762;2024-03-23T05:06:24;7.20;75.50
20492;DHT22;10404;51.468;6.762;2024-03-23T05:08:50;7.20;75.50
20492;DHT22;10404;51.468;6.762;2024-03-23T05:11:16;7.20;75.60
20492;DHT22;10404;51.468;6.762;2024-03-23T05:13:42;7.20;75.60
20492;DHT22;10404;51.468;6.762;2024-03-23T05:16:07;7.20;75.70
20492;DHT22;10404;51.468;6.762;2024-03-23T05:18:34;7.20;75.70
20492;DHT22;10404;51.468;6.762;2024-03-23T05:21:00;7.20;75.70
20492;DHT22;10404;51.468;6.762;2024-03-23T05:23:26;7.20;75.80
20492;DHT22;10404;51.468;6.762;2024-03-23T05:25:56;7.10;75.80
20492;DHT22;10404;51.468;6.762;2024-03-23T05:28:22;7.10;75.80
20492;DHT22;10404;51.468;6.762;2024-03-23T05:30:54;7.10;76.00
20492;DHT22;10404;51.468;6.762;2024-03-23T05:33:21;7.00;75.80
20492;DHT22;10404;51.468;6.762;2024-03-23T05:35:46;7.00;75.90
20492;DHT22;10404;51.468;6.762;2024-03-23T05:38:13;7.00;75.90
20492;DHT22;10404;51.468;6.762;2024-03-23T05:40:39;7.00;75.90
20492;DHT22;10404;51.468;6.762;2024-03-23T05:43:06;7.00;76.00
20492;DHT22;10404;51.468;6.762;2024-03-23T05:45:32;7.00;75.90
20492;DHT22;10404;51.468;6.762;2024-03-23T05:47:58;7.00;75.90
20492;DHT22;10404;51.468;6.762;2024-03-23T05:50:24;7.00;76.00
20492;DHT22;10404;51.468;6.762;2024-03-23T05:52:55;7.00;76.10
20492;DHT22;10404;51.468;6.762;2024-03-23T05:55:21;7.00;76.10
20492;DHT22;10404;51.468;6.762;2024-03-23T05:57:46;6.90;76.10
20492;DHT22;10404;51.468;6.762;2024-03-23T06:00:12;6.90;76.10
20492;DHT22;10404;51.468;6.762;2024-03-23T06:02:43;6.90;76.10
20492;DHT22;10404;51.468;6.762;2024-03-23T06:05:13;6.90;76.10
20492;DHT22;10404;51.468;6.762;2024-03-23T06:07:39;6.90;76.10
20492;DHT22;10404;51.468;6.762;2024-03-23T06:10:05;6.90;76.20
20492;DHT22;10404;51.468;6.762;2024-03-23T06:12:31;6.90;76.20
20492;DHT22;10404;51.468;6.762;2024-03-23T06:14:59;6.80;76.20
20492;DHT22;10404;51.468;6.762;2024-03-23T06:17:25;6.80;76.20
20492;DHT22;10404;51.468;6.762;2024-03-23T06:19:50;6.80;76.20
20492;DHT22;10404;51.468;6.762;2024-03-23T06:22:16;6.80;76.20
20492;DHT22;10404;51.468;6.762;2024-03-23T06:24:42;6.80;76.20
20492;DHT22;10404;51.468;6.762;2024-03-23T06:27:07;6.80;76.40
20492;DHT22;10404;51.468;6.762;2024-03-23T06:29:33;6.70;76.20
20492;DHT22;10404;51.468;6.762;2024-03-23T06:31:58;6.70;76.20
20492;DHT22;10404;51.468;6.762;2024-03-23T06:34:24;6.70;76.30
20492;DHT22;10404;51.468;6.762;2024-03-23T06:36:50;6.70;76.20
20492;DHT22;10404;51.468;6.762;2024-03-23T06:39:18;6.70;76.30
20492;DHT22;10404;51.468;6.762;2024-03-23T06:42:02;6.70;76.30
20492;DHT22;10404;51.468;6.762;2024-03-23T06:44:27;6.70;76.40
20492;DHT22;10404;51.468;6.762;2024-03-23T06:46:53;6.60;76.50
20492;DHT22;10404;51.468;6.762;2024-03-23T06:49:19;6.60;76.50
20492;DHT22;10404;51.468;6.762;2024-03-23T06:51:49;6.60;76.50
20492;DHT22;10404;51.468;6.762;2024-03-23T06:54:24;6.60;76.50
20492;DHT22;10404;51.468;6.762;2024-03-23T06:56:49;6.60;76.50
20492;DHT22;10404;51.468;6.762;2024-03-23T06:59:15;6.60;76.50
20492;DHT22;10404;51.468;6.762;2024-03-23T07:01:40;6.60;76.50
20492;DHT22;10404;51.468;6.762;2024-03-23T07:04:07;6.60;76.40
20492;DHT22;10404;51.468;6.762;2024-03-23T07:06:33;6.60;76.50
20492;DHT22;10404;51.468;6.762;2024-03-23T07:08:59;6.60;76.50
20492;DHT22;10404;51.468;6.762;2024-03-23T07:11:24;6.50;76.60
20492;DHT22;10404;51.468;6.762;2024-03-23T07:13:51;6.50;76.70
20492;DHT22;10404;51.468;6.762;2024-03-23T07:16:17;6.50;76.60
20492;DHT22;10404;51.468;6.762;2024-03-23T07:18:43;6.60;76.60
20492;DHT22;10404;51.468;6.762;2024-03-23T07:21:09;6.50;76.60
20492;DHT22;10404;51.468;6.762;2024-03-23T07:23:35;6.50;76.70
20492;DHT22;10404;51.468;6.762;2024-03-23T07:26:02;6.60;76.60
20492;DHT22;10404;51.468;6.762;2024-03-23T07:28:28;6.60;76.50
20492;DHT22;10404;51.468;6.762;2024-03-23T07:31:15;6.60;76.60
20492;DHT22;10404;51.468;6.762;2024-03-23T07:33:44;6.70;76.80
20492;DHT22;10404;51.468;6.762;2024-03-23T07:36:10;6.80;76.50
20492;DHT22;10404;51.468;6.762;2024-03-23T07:38:36;7.00;76.00
20492;DHT22;10404;51.468;6.762;2024-03-23T07:41:05;7.20;75.60
20492;DHT22;10404;51.468;6.762;2024-03-23T07:43:31;7.30;75.20
20492;DHT22;10404;51.468;6.762;2024-03-23T07:45:57;7.50;74.80
20492;DHT22;10404;51.468;6.762;2024-03-23T07:48:22;7.50;74.50
20492;DHT22;10404;51.468;6.762;2024-03-23T07:51:04;7.60;74.30
20492;DHT22;10404;51.468;6.762;2024-03-23T07:53:30;7.60;74.20
20492;DHT22;10404;51.468;6.762;2024-03-23T07:55:59;7.60;74.30
20492;DHT22;10404;51.468;6.762;2024-03-23T07:58:25;7.80;74.20
20492;DHT22;10404;51.468;6.762;2024-03-23T08:00:55;7.80;74.00
20492;DHT22;10404;51.468;6.762;2024-03-23T08:03:21;7.80;73.90
20492;DHT22;10404;51.468;6.762;2024-03-23T08:05:47;8.00;73.80
20492;DHT22;10404;51.468;6.762;2024-03-23T08:08:13;8.00;73.40
20492;DHT22;10404;51.468;6.762;2024-03-23T08:10:51;8.10;73.60
20492;DHT22;10404;51.468;6.762;2024-03-23T08:13:19;8.20;73.20
20492;DHT22;10404;51.468;6.762;2024-03-23T08:15:45;8.30;73.00
20492;DHT22;10404;51.468;6.762;2024-03-23T08:18:12;8.30;72.90
20492;DHT22;10404;51.468;6.762;2024-03-23T08:20:38;8.40;73.00
20492;DHT22;10404;51.468;6.762;2024-03-23T08:23:06;8.50;72.60
20492;DHT22;10404;51.468;6.762;2024-03-23T08:25:32;8.50;72.60
20492;DHT22;10404;51.468;6.762;2024-03-23T08:27:58;8.60;72.50
20492;DHT22;10404;51.468;6.762;2024-03-23T08:30:23;8.60;72.60
20492;DHT22;10404;51.468;6.762;2024-03-23T08:32:49;8.50;72.80
20492;DHT22;10404;51.468;6.762;2024-03-23T08:35:15;8.40;73.30
20492;DHT22;10404;51.468;6.762;2024-03-23T08:37:40;8.40;73.50
20492;DHT22;10404;51.468;6.762;2024-03-23T08:40:06;8.30;73.50
20492;DHT22;10404;51.468;6.762;2024-03-23T08:42:33;8.20;73.60
20492;DHT22;10404;51.468;6.762;2024-03-23T08:44:59;8.20;73.80
20492;DHT22;10404;51.468;6.762;2024-03-23T08:47:25;8.10;73.90
20492;DHT22;10404;51.468;6.762;2024-03-23T08:49:51;8.00;74.00
20492;DHT22;10404;51.468;6.762;2024-03-23T08:52:16;8.00;74.30
20492;DHT22;10404;51.468;6.762;2024-03-23T08:54:42;8.00;74.30
20492;DHT22;10404;51.468;6.762;2024-03-23T08:57:08;7.90;74.60
20492;DHT22;10404;51.468;6.762;2024-03-23T08:59:34;7.80;74.50
20492;DHT22;10404;51.468;6.762;2024-03-23T09:02:00;7.80;74.60
20492;DHT22;10404;51.468;6.762;2024-03-23T09:04:25;7.90;74.60
20492;DHT22;10404;51.468;6.762;2024-03-23T09:06:51;8.00;74.60
20492;DHT22;10404;51.468;6.762;2024-03-23T09:09:17;8.20;74.20
20492;DHT22;10404;51.468;6.762;2024-03-23T09:11:43;8.40;73.60
20492;DHT22;10404;51.468;6.762;2024-03-23T09:14:08;8.60;72.70
20492;DHT22;10404;51.468;6.762;2024-03-23T09:16:34;8.90;71.70
20492;DHT22;10404;51.468;6.762;2024-03-23T09:19:00;9.10;71.50
20492;DHT22;10404;51.468;6.762;2024-03-23T09:21:26;9.40;70.60
20492;DHT22;10404;51.468;6.762;2024-03-23T09:23:51;9.40;70.50
20492;DHT22;10404;51.468;6.762;2024-03-23T09:26:17;9.50;70.50
20492;DHT22;10404;51.468;6.762;2024-03-23T09:28:42;9.40;70.70
20492;DHT22;10404;51.468;6.762;2024-03-23T09:31:08;9.20;71.50
20492;DHT22;10404;51.468;6.762;2024-03-23T09:33:35;9.20;72.20
20492;DHT22;10404;51.468;6.762;2024-03-23T09:36:05;9.20;71.60
20492;DHT22;10404;51.468;6.762;2024-03-23T09:38:31;9.20;71.70
20492;DHT22;10404;51.468;6.762;2024-03-23T09:40:57;9.00;72.10
20492;DHT22;10404;51.468;6.762;2024-03-23T09:43:23;9.00;72.10
20492;DHT22;10404;51.468;6.762;2024-03-23T09:45:49;8.90;72.60
20492;DHT22;10404;51.468;6.762;2024-03-23T09:48:15;9.10;73.00
20492;DHT22;10404;51.468;6.762;2024-03-23T09:50:43;9.20;72.30
20492;DHT22;10404;51.468;6.762;2024-03-23T09:53:13;9.20;71.90
20492;DHT22;10404;51.468;6.762;2024-03-23T09:55:40;9.20;72.10
20492;DHT22;10404;51.468;6.762;2024-03-23T09:58:06;9.20;72.10
20492;DHT22;10404;51.468;6.762;2024-03-23T10:00:32;9.20;72.10
20492;DHT22;10404;51.468;6.762;2024-03-23T10:02:59;9.50;72.20
20492;DHT22;10404;51.468;6.762;2024-03-23T10:05:30;9.80;71.40
20492;DHT22;10404;51.468;6.762;2024-03-23T10:10:41;10.10;69.30
20492;DHT22;10404;51.468;6.762;2024-03-23T10:13:06;10.20;69.60
20492;DHT22;10404;51.468;6.762;2024-03-23T10:15:35;10.40;69.90
20492;DHT22;10404;51.468;6.762;2024-03-23T10:18:21;10.70;68.60
20492;DHT22;10404;51.468;6.762;2024-03-23T10:20:52;10.80;67.80
20492;DHT22;10404;51.468;6.762;2024-03-23T10:23:18;10.90;67.30
20492;DHT22;10404;51.468;6.762;2024-03-23T10:25:44;10.80;67.00
20492;DHT22;10404;51.468;6.762;2024-03-23T10:28:11;10.70;67.20
20492;DHT22;10404;51.468;6.762;2024-03-23T10:30:37;10.70;66.90
20492;DHT22;10404;51.468;6.762;2024-03-23T10:33:10;10.60;67.50
20492;DHT22;10404;51.468;6.762;2024-03-23T10:35:37;10.50;67.90
20492;DHT22;10404;51.468;6.762;2024-03-23T10:38:05;10.40;68.20
20492;DHT22;10404;51.468;6.762;2024-03-23T10:40:34;10.30;68.30
20492;DHT22;10404;51.468;6.762;2024-03-23T10:43:00;10.20;69.00
20492;DHT22;10404;51.468;6.762;2024-03-23T10:45:26;10.10;69.30
20492;DHT22;10404;51.468;6.762;2024-03-23T10:47:51;10.10;69.40
20492;DHT22;10404;51.468;6.762;2024-03-23T10:50:17;10.10;69.30
20492;DHT22;10404;51.468;6.762;2024-03-23T10:52:46;10.00;69.40
20492;DHT22;10404;51.468;6.762;2024-03-23T10:55:14;10.00;69.20
20492;DHT22;10404;51.468;6.762;2024-03-23T10:58:01;9.90;69.10
20492;DHT22;10404;51.468;6.762;2024-03-23T11:00:27;9.80;69.40
20492;DHT22;10404;51.468;6.762;2024-03-23T11:02:53;9.70;69.70
20492;DHT22;10404;51.468;6.762;2024-03-23T11:05:29;9.70;69.80
20492;DHT22;10404;51.468;6.762;2024-03-23T11:07:55;9.60;69.90
20492;DHT22;10404;51.468;6.762;2024-03-23T11:10:30;9.60;69.90
20492;DHT22;10404;51.468;6.762;2024-03-23T11:12:57;9.70;70.00
20492;DHT22;10404;51.468;6.762;2024-03-23T11:15:23;9.80;69.70
20492;DHT22;10404;51.468;6.762;2024-03-23T11:18:21;9.80;69.50
20492;DHT22;10404;51.468;6.762;2024-03-23T11:20:46;9.80;69.40
20492;DHT22;10404;51.468;6.762;2024-03-23T11:23:28;9.90;69.40
20492;DHT22;10404;51.468;6.762;2024-03-23T11:25:54;10.00;69.50
20492;DHT22;10404;51.468;6.762;2024-03-23T11:28:19;10.10;69.10
20492;DHT22;10404;51.468;6.762;2024-03-23T11:30:45;10.20;69.00
20492;DHT22;10404;51.468;6.762;2024-03-23T11:33:12;10.30;68.60
20492;DHT22;10404;51.468;6.762;2024-03-23T11:35:39;10.30;68.50
20492;DHT22;10404;51.468;6.762;2024-03-23T11:40:31;10.40;68.40
20492;DHT22;10404;51.468;6.762;2024-03-23T11:43:30;10.50;68.50
20492;DHT22;10404;51.468;6.762;2024-03-23T11:45:55;10.50;68.30
20492;DHT22;10404;51.468;6.762;2024-03-23T11:48:23;10.50;68.20
20492;DHT22;10404;51.468;6.762;2024-03-23T11:50:55;10.60;68.00
20492;DHT22;10404;51.468;6.762;2024-03-23T11:53:22;10.70;67.50
20492;DHT22;10404;51.468;6.762;2024-03-23T11:55:55;10.70;67.10
20492;DHT22;10404;51.468;6.762;2024-03-23T11:58:22;10.80;66.70
20492;DHT22;10404;51.468;6.762;2024-03-23T12:01:01;10.80;66.40
20492;DHT22;10404;51.468;6.762;2024-03-23T12:03:31;10.80;65.80
20492;DHT22;10404;51.468;6.762;2024-03-23T12:06:03;10.80;65.50
20492;DHT22;10404;51.468;6.762;2024-03-23T12:08:29;10.80;65.60
20492;DHT22;10404;51.468;6.762;2024-03-23T12:11:11;10.80;65.40
20492;DHT22;10404;51.468;6.762;2024-03-23T12:13:38;10.80;65.80
20492;DHT22;10404;51.468;6.762;2024-03-23T12:16:17;10.90;66.00
20492;DHT22;10404;51.468;6.762;2024-03-23T12:18:46;10.90;65.80
20492;DHT22;10404;51.468;6.762;2024-03-23T12:21:12;10.90;65.90
20492;DHT22;10404;51.468;6.762;2024-03-23T12:23:41;11.00;65.90
20492;DHT22;10404;51.468;6.762;2024-03-23T12:26:08;11.00;65.80
20492;DHT22;10404;51.468;6.762;2024-03-23T12:28:35;11.00;65.60
20492;DHT22;10404;51.468;6.762;2024-03-23T12:31:00;11.10;65.70
20492;DHT22;10404;51.468;6.762;2024-03-23T12:33:26;11.10;65.50
20492;DHT22;10404;51.468;6.762;2024-03-23T12:35:52;11.10;65.50
20492;DHT22;10404;51.468;6.762;2024-03-23T12:38:19;11.10;65.40
20492;DHT22;10404;51.468;6.762;2024-03-23T12:40:48;11.10;65.30
20492;DHT22;10404;51.468;6.762;2024-03-23T12:43:15;11.20;65.50
20492;DHT22;10404;51.468;6.762;2024-03-23T12:45:40;11.30;65.30
20492;DHT22;10404;51.468;6.762;2024-03-23T12:48:06;11.30;65.10
20492;DHT22;10404;51.468;6.762;2024-03-23T12:50:32;11.40;65.00
20492;DHT22;10404;51.468;6.762;2024-03-23T12:52:58;11.40;65.00
20492;DHT22;10404;51.468;6.762;2024-03-23T12:55:23;11.40;65.00
20492;DHT22;10404;51.468;6.762;2024-03-23T12:57:49;11.40;65.20
20492;DHT22;10404;51.468;6.762;2024-03-23T13:00:15;11.40;65.10
20492;DHT22;10404;51.468;6.762;2024-03-23T13:02:43;11.30;65.40
20492;DHT22;10404;51.468;6.762;2024-03-23T13:05:09;11.30;65.20
20492;DHT22;10404;51.468;6.762;2024-03-23T13:07:35;11.40;65.10
20492;DHT22;10404;51.468;6.762;2024-03-23T13:10:03;11.40;64.80
20492;DHT22;10404;51.468;6.762;2024-03-23T13:12:29;11.40;64.70
20492;DHT22;10404;51.468;6.762;2024-03-23T13:14:54;11.40;65.10
20492;DHT22;10404;51.468;6.762;2024-03-23T13:17:20;11.40;65.00
20492;DHT22;10404;51.468;6.762;2024-03-23T13:19:45;11.40;65.20
20492;DHT22;10404;51.468;6.762;2024-03-23T13:22:12;11.40;64.90
20492;DHT22;10404;51.468;6.762;2024-03-23T13:24:38;11.40;65.40
20492;DHT22;10404;51.468;6.762;2024-03-23T13:27:04;11.40;65.30
20492;DHT22;10404;51.468;6.762;2024-03-23T13:29:33;11.40;65.40
20492;DHT22;10404;51.468;6.762;2024-03-23T13:31:59;11.40;65.60
20492;DHT22;10404;51.468;6.762;2024-03-23T13:34:25;11.30;65.50
20492;DHT22;10404;51.468;6.762;2024-03-23T13:36:50;11.30;65.20
20492;DHT22;10404;51.468;6.762;2024-03-23T13:39:17;11.20;65.60
20492;DHT22;10404;51.468;6.762;2024-03-23T13:41:44;11.20;65.40
20492;DHT22;10404;51.468;6.762;2024-03-23T13:44:10;11.10;65.30
20492;DHT22;10404;51.468;6.762;2024-03-23T13:46:37;11.10;65.10
20492;DHT22;10404;51.468;6.762;2024-03-23T13:49:03;11.10;64.90
20492;DHT22;10404;51.468;6.762;2024-03-23T13:51:29;11.10;65.10
20492;DHT22;10404;51.468;6.762;2024-03-23T13:53:55;11.20;64.80
20492;DHT22;10404;51.468;6.762;2024-03-23T13:56:24;11.10;65.20
20492;DHT22;10404;51.468;6.762;2024-03-23T13:58:50;11.20;64.80
20492;DHT22;10404;51.468;6.762;2024-03-23T14:01:17;11.20;64.50
20492;DHT22;10404;51.468;6.762;2024-03-23T14:03:43;11.20;64.50
20492;DHT22;10404;51.468;6.762;2024-03-23T14:06:10;11.30;63.80
20492;DHT22;10404;51.468;6.762;2024-03-23T14:08:36;11.30;64.00
20492;DHT22;10404;51.468;6.762;2024-03-23T14:11:08;11.40;64.40
20492;DHT22;10404;51.468;6.762;2024-03-23T14:13:36;11.40;63.90
20492;DHT22;10404;51.468;6.762;2024-03-23T14:16:02;11.50;64.20
20492;DHT22;10404;51.468;6.762;2024-03-23T14:18:28;11.50;64.00
20492;DHT22;10404;51.468;6.762;2024-03-23T14:20:58;11.50;64.30
20492;DHT22;10404;51.468;6.762;2024-03-23T14:23:29;11.60;63.60
20492;DHT22;10404;51.468;6.762;2024-03-23T14:25:55;11.60;64.20
20492;DHT22;10404;51.468;6.762;2024-03-23T14:28:22;11.70;63.90
20492;DHT22;10404;51.468;6.762;2024-03-23T14:30:52;11.70;63.50
20492;DHT22;10404;51.468;6.762;2024-03-23T14:33:20;11.80;63.60
20492;DHT22;10404;51.468;6.762;2024-03-23T14:35:55;11.90;64.10
20492;DHT22;10404;51.468;6.762;2024-03-23T14:38:22;11.90;60.60
20492;DHT22;10404;51.468;6.762;2024-03-23T14:40:48;11.70;57.60
20492;DHT22;10404;51.468;6.762;2024-03-23T14:43:14;11.70;55.60
20492;DHT22;10404;51.468;6.762;2024-03-23T14:46:09;11.50;55.10
20492;DHT22;10404;51.468;6.762;2024-03-23T14:48:35;11.40;53.10
20492;DHT22;10404;51.468;6.762;2024-03-23T14:51:02;11.40;53.40
20492;DHT22;10404;51.468;6.762;2024-03-23T14:53:30;11.30;53.40
20492;DHT22;10404;51.468;6.762;2024-03-23T14:55:56;11.20;52.60
20492;DHT22;10404;51.468;6.762;2024-03-23T14:58:22;11.10;52.00
20492;DHT22;10404;51.468;6.762;2024-03-23T15:00:49;11.00;52.30
20492;DHT22;10404;51.468;6.762;2024-03-23T15:03:15;11.10;53.40
20492;DHT22;10404;51.468;6.762;2024-03-23T15:05:41;11.10;54.10
20492;DHT22;10404;51.468;6.762;2024-03-23T15:08:06;11.30;55.80
20492;DHT22;10404;51.468;6.762;2024-03-23T15:10:35;11.40;56.80
20492;DHT22;10404;51.468;6.762;2024-03-23T15:13:01;11.50;56.90
20492;DHT22;10404;51.468;6.762;2024-03-23T15:15:26;11.50;57.30
20492;DHT22;10404;51.468;6.762;2024-03-23T15:17:52;11.70;57.50
20492;DHT22;10404;51.468;6.762;2024-03-23T15:20:17;11.70;58.30
20492;DHT22;10404;51.468;6.762;2024-03-23T15:22:43;11.80;58.20
20492;DHT22;10404;51.468;6.762;2024-03-23T15:25:09;11.90;58.20
20492;DHT22;10404;51.468;6.762;2024-03-23T15:27:35;11.90;58.20
20492;DHT22;10404;51.468;6.762;2024-03-23T15:30:00;11.90;58.20
20492;DHT22;10404;51.468;6.762;2024-03-23T15:32:26;12.00;58.40
20492;DHT22;10404;51.468;6.762;2024-03-23T15:34:51;12.00;58.40
20492;DHT22;10404;51.468;6.762;2024-03-23T15:37:17;12.10;58.40
20492;DHT22;10404;51.468;6.762;2024-03-23T15:39:43;12.10;58.40
20492;DHT22;10404;51.468;6.762;2024-03-23T15:42:08;12.10;58.60
20492;DHT22;10404;51.468;6.762;2024-03-23T15:44:35;12.10;58.60
20492;DHT22;10404;51.468;6.762;2024-03-23T15:47:01;12.10;58.90
20492;DHT22;10404;51.468;6.762;2024-03-23T15:49:26;12.10;59.00
20492;DHT22;10404;51.468;6.762;2024-03-23T15:51:52;12.10;59.10
20492;DHT22;10404;51.468;6.762;2024-03-23T15:54:18;12.10;58.90
20492;DHT22;10404;51.468;6.762;2024-03-23T15:56:44;12.10;58.60
20492;DHT22;10404;51.468;6.762;2024-03-23T15:59:09;12.10;58.90
20492;DHT22;10404;51.468;6.762;2024-03-23T16:01:35;12.10;59.10
20492;DHT22;10404;51.468;6.762;2024-03-23T16:04:02;12.10;58.70
20492;DHT22;10404;51.468;6.762;2024-03-23T16:06:27;12.10;58.80
20492;DHT22;10404;51.468;6.762;2024-03-23T16:08:53;12.10;59.00
20492;DHT22;10404;51.468;6.762;2024-03-23T16:11:19;12.10;58.60
20492;DHT22;10404;51.468;6.762;2024-03-23T16:13:45;12.10;58.90
20492;DHT22;10404;51.468;6.762;2024-03-23T16:16:12;12.10;58.30
20492;DHT22;10404;51.468;6.762;2024-03-23T16:18:38;12.10;59.10
20492;DHT22;10404;51.468;6.762;2024-03-23T16:21:07;12.00;58.70
20492;DHT22;10404;51.468;6.762;2024-03-23T16:23:34;12.00;58.60
20492;DHT22;10404;51.468;6.762;2024-03-23T16:26:00;12.00;59.10
20492;DHT22;10404;51.468;6.762;2024-03-23T16:28:36;12.00;59.30
20492;DHT22;10404;51.468;6.762;2024-03-23T16:31:06;12.00;58.70
20492;DHT22;10404;51.468;6.762;2024-03-23T16:33:33;12.00;59.60
20492;DHT22;10404;51.468;6.762;2024-03-23T16:38:25;11.90;59.80
20492;DHT22;10404;51.468;6.762;2024-03-23T16:40:58;11.90;59.00